createdAt,value
2019-04-18T00:00:09.173Z,5.64
2019-04-18T00:01:09.174Z,5.67
2019-04-18T00:02:12.581Z,5.67
2019-04-18T00:03:09.178Z,5.68
2019-04-18T00:04:09.222Z,5.64
2019-04-18T00:05:09.111Z,5.64
2019-04-18T00:06:09.113Z,5.57
2019-04-18T00:07:09.179Z,5.55
2019-04-18T00:08:09.115Z,5.51
2019-04-18T00:09:09.182Z,5.53
2019-04-18T00:10:09.120Z,5.51
2019-04-18T00:11:09.116Z,5.48
2019-04-18T00:12:09.182Z,5.51
2019-04-18T00:13:09.127Z,5.49
2019-04-18T00:14:09.190Z,5.48
2019-04-18T00:15:09.121Z,5.46
2019-04-18T00:16:10.439Z,5.42
2019-04-18T00:17:09.122Z,5.40
2019-04-18T00:18:09.460Z,5.38
2019-04-18T00:19:13.133Z,5.41
2019-04-18T00:20:09.190Z,5.38
2019-04-18T00:21:09.121Z,5.40
2019-04-18T00:22:09.188Z,5.38
2019-04-18T00:23:09.192Z,5.37
2019-04-18T00:24:09.124Z,5.38
2019-04-18T00:25:09.193Z,5.37
2019-04-18T00:26:12.147Z,5.35
2019-04-18T00:27:09.212Z,5.35
2019-04-18T00:28:09.195Z,5.34
2019-04-18T00:29:09.131Z,5.33
2019-04-18T00:30:09.198Z,5.27
2019-04-18T00:31:09.135Z,5.25
2019-04-18T00:32:13.412Z,5.22
2019-04-18T00:33:09.177Z,5.19
2019-04-18T00:34:15.477Z,5.15
2019-04-18T00:35:11.249Z,5.10
2019-04-18T00:36:10.862Z,5.11
2019-04-18T00:37:09.481Z,5.07
2019-04-18T00:38:09.138Z,5.07
2019-04-18T00:39:09.206Z,5.07
2019-04-18T00:40:11.744Z,5.06
2019-04-18T00:41:09.644Z,5.02
2019-04-18T00:42:09.129Z,4.99
2019-04-18T00:43:09.203Z,4.99
2019-04-18T00:44:09.140Z,4.95
2019-04-18T00:45:12.278Z,4.92
2019-04-18T00:46:09.207Z,4.91
2019-04-18T00:47:09.143Z,4.89
2019-04-18T00:48:09.146Z,4.91
2019-04-18T00:49:09.212Z,4.88
2019-04-18T00:50:09.246Z,4.85
2019-04-18T00:51:09.212Z,4.82
2019-04-18T00:52:09.160Z,4.78
2019-04-18T00:53:09.558Z,4.78
2019-04-18T00:54:09.499Z,4.80
2019-04-18T00:55:09.462Z,4.78
2019-04-18T00:56:09.522Z,4.80
2019-04-18T00:57:13.441Z,4.80
2019-04-18T00:58:09.217Z,4.74
2019-04-18T00:59:09.216Z,4.70
2019-04-18T01:00:13.212Z,4.66
2019-04-18T01:01:12.884Z,4.64
2019-04-18T01:02:09.219Z,4.59
2019-04-18T01:03:09.154Z,4.54
2019-04-18T01:04:25.406Z,4.51
2019-04-18T01:05:10.833Z,4.48
2019-04-18T01:06:12.810Z,4.47
2019-04-18T01:07:09.222Z,4.44
2019-04-18T01:08:09.159Z,4.40
2019-04-18T01:09:09.225Z,4.36
2019-04-18T01:10:09.159Z,4.36
2019-04-18T01:11:09.230Z,4.39
2019-04-18T01:12:09.160Z,4.39
2019-04-18T01:13:10.702Z,4.37
2019-04-18T01:14:12.477Z,4.37
2019-04-18T01:15:09.291Z,4.36
2019-04-18T01:16:09.163Z,4.35
2019-04-18T01:17:11.447Z,4.35
2019-04-18T01:18:13.517Z,4.37
2019-04-18T01:19:09.626Z,4.37
2019-04-18T01:20:09.230Z,4.35
2019-04-18T01:21:09.167Z,4.32
2019-04-18T01:22:14.050Z,4.33
2019-04-18T01:23:09.537Z,4.36
2019-04-18T01:24:09.246Z,4.39
2019-04-18T01:25:09.183Z,4.36
2019-04-18T01:26:12.486Z,4.32
2019-04-18T06:50:09.406Z,11.64
2019-04-18T06:51:09.658Z,11.79
2019-04-18T06:52:10.125Z,11.91
2019-04-18T06:53:13.635Z,12.06
2019-04-18T06:54:09.403Z,12.12
2019-04-18T06:55:09.479Z,12.20
2019-04-18T06:56:13.929Z,12.26
2019-04-18T06:57:09.418Z,12.39
2019-04-18T06:58:09.376Z,12.31
2019-04-18T06:59:09.418Z,12.35
2019-04-18T07:00:11.270Z,12.37
2019-04-18T07:01:09.461Z,12.54
2019-04-18T07:02:12.645Z,12.77
2019-04-18T07:03:09.472Z,12.91
2019-04-18T07:04:09.484Z,12.98
2019-04-18T07:05:09.350Z,13.00
2019-04-18T07:06:11.971Z,13.06
2019-04-18T07:07:09.437Z,13.12
2019-04-18T07:08:09.415Z,13.34
2019-04-18T07:09:09.825Z,13.49
2019-04-18T07:10:12.778Z,13.57
2019-04-18T07:11:09.489Z,13.47
2019-04-18T07:12:10.737Z,13.61
2019-04-18T07:13:09.509Z,13.77
2019-04-18T07:14:10.079Z,13.84
2019-04-18T07:15:09.424Z,13.76
2019-04-18T07:16:12.149Z,13.91
2019-04-18T07:17:10.505Z,14.09
2019-04-18T07:18:09.405Z,14.35
2019-04-18T07:19:09.403Z,14.44
2019-04-18T07:20:15.595Z,14.49
2019-04-18T07:21:09.625Z,14.61
2019-04-18T07:22:09.665Z,14.73
2019-04-18T07:23:09.414Z,15.00
2019-04-18T07:24:09.485Z,15.21
2019-04-18T07:25:09.621Z,15.36
2019-04-18T07:26:09.706Z,15.58
2019-04-18T07:27:09.485Z,15.79
2019-04-18T07:28:09.479Z,16.02
2019-04-18T07:29:09.878Z,16.07
2019-04-18T07:30:09.519Z,16.10
2019-04-18T07:31:09.428Z,16.16
2019-04-18T07:32:09.650Z,16.20
2019-04-18T07:33:09.388Z,16.33
2019-04-18T07:34:09.796Z,16.52
2019-04-18T07:35:09.501Z,16.58
2019-04-18T07:36:09.510Z,16.61
2019-04-18T07:37:15.353Z,16.62
2019-04-18T07:38:09.502Z,16.57
2019-04-18T07:39:10.015Z,16.48
2019-04-18T07:40:11.960Z,16.47
2019-04-18T07:41:09.402Z,16.54
2019-04-18T07:42:09.512Z,16.50
2019-04-18T07:43:09.443Z,16.54
2019-04-18T07:44:09.447Z,16.63
2019-04-18T07:45:09.511Z,16.76
2019-04-18T07:46:09.522Z,16.91
2019-04-18T07:47:09.526Z,17.05
2019-04-18T07:48:09.812Z,17.09
2019-04-18T07:49:09.633Z,17.20
2019-04-18T07:50:09.680Z,17.29
2019-04-18T07:51:09.452Z,17.32
2019-04-18T07:52:09.479Z,17.26
2019-04-18T07:53:09.674Z,17.12
2019-04-18T07:54:09.451Z,17.13
2019-04-18T07:55:09.881Z,17.26
2019-04-18T07:56:10.028Z,17.40
2019-04-18T07:57:12.336Z,17.47
2019-04-18T07:58:10.266Z,17.43
2019-04-18T07:59:14.867Z,17.36
2019-04-18T08:00:09.575Z,17.33
2019-04-18T08:01:09.410Z,17.39
2019-04-18T08:02:10.006Z,17.40
2019-04-18T08:03:11.573Z,17.49
2019-04-18T08:04:15.621Z,17.50
2019-04-18T08:05:09.630Z,17.62
2019-04-18T08:06:11.127Z,17.65
2019-04-18T08:07:09.459Z,17.79
2019-04-18T08:08:09.461Z,17.87
2019-04-18T08:09:09.880Z,17.85
2019-04-18T08:10:20.563Z,17.96
2019-04-18T08:11:09.415Z,17.95
2019-04-18T08:12:09.848Z,18.09
2019-04-18T08:13:09.399Z,18.21
2019-04-18T08:14:09.519Z,18.31
2019-04-18T08:15:09.655Z,18.32
2019-04-18T08:16:09.419Z,18.28
2019-04-18T08:17:12.127Z,18.35
2019-04-18T08:18:09.789Z,18.35
2019-04-18T08:19:09.537Z,18.28
2019-04-18T08:20:09.872Z,18.06
2019-04-18T08:21:09.627Z,18.09
2019-04-18T08:22:09.528Z,18.18
2019-04-18T08:23:20.002Z,18.21
2019-04-18T08:24:10.258Z,18.28
2019-04-18T08:25:09.529Z,18.23
2019-04-18T08:26:09.453Z,18.32
2019-04-18T08:27:09.571Z,18.18
2019-04-18T08:28:12.571Z,18.20
2019-04-18T08:29:24.130Z,18.14
2019-04-18T08:30:09.540Z,18.28
2019-04-18T08:31:09.469Z,18.31
2019-04-18T08:32:13.782Z,18.36
2019-04-18T08:33:09.924Z,18.51
2019-04-18T08:34:09.666Z,18.66
2019-04-18T08:35:09.515Z,18.68
2019-04-18T08:36:09.545Z,18.75
2019-04-18T08:37:09.585Z,18.64
2019-04-18T08:38:09.550Z,18.73
2019-04-18T08:39:10.382Z,18.86
2019-04-18T08:40:09.779Z,19.06
2019-04-18T08:41:09.540Z,19.06
2019-04-18T08:42:09.537Z,19.17
2019-04-18T08:43:09.573Z,19.16
2019-04-18T08:44:09.538Z,19.19
2019-04-18T08:45:09.543Z,19.21
2019-04-18T08:46:09.977Z,19.20
2019-04-18T08:47:14.775Z,19.32
2019-04-18T08:48:09.934Z,19.43
2019-04-18T08:49:09.500Z,19.49
2019-04-18T08:50:09.830Z,19.51
2019-04-18T08:51:09.499Z,19.58
2019-04-18T08:52:09.865Z,19.68
2019-04-18T08:53:09.493Z,19.79
2019-04-18T08:54:10.717Z,19.79
2019-04-18T08:56:09.491Z,19.35
2019-04-18T08:57:12.177Z,19.31
2019-04-18T08:58:09.491Z,19.29
2019-04-18T08:59:09.433Z,19.46
2019-04-18T09:00:09.561Z,19.68
2019-04-18T09:01:09.912Z,19.76
2019-04-18T09:02:09.508Z,19.95
2019-04-18T09:03:23.540Z,19.57
2019-04-18T09:04:09.637Z,19.58
2019-04-18T09:05:21.221Z,19.68
2019-04-18T09:06:28.361Z,19.83
2019-04-18T09:07:11.079Z,20.01
2019-04-18T09:08:12.985Z,19.94
2019-04-18T09:09:10.759Z,19.96
2019-04-18T09:10:10.409Z,20.05
2019-04-18T09:11:10.763Z,20.13
2019-04-18T09:12:11.129Z,20.31
2019-04-18T09:13:18.366Z,20.14
2019-04-18T09:14:14.617Z,20.18
2019-04-18T09:15:09.849Z,20.27
2019-04-18T09:16:10.488Z,20.07
2019-04-18T09:17:10.376Z,20.10
2019-04-18T09:18:12.921Z,20.20
2019-04-18T09:19:14.777Z,20.28
2019-04-18T09:20:12.735Z,20.36
2019-04-18T09:21:17.906Z,20.35
2019-04-18T09:22:10.494Z,20.35
2019-04-18T09:23:10.804Z,20.23
2019-04-18T09:24:10.590Z,20.42
2019-04-18T09:25:10.218Z,20.61
2019-04-18T09:26:10.150Z,20.82
2019-04-18T09:27:10.293Z,20.95
2019-04-18T09:28:09.639Z,20.98
2019-04-18T09:29:10.115Z,20.84
2019-04-18T09:30:09.851Z,20.86
2019-04-18T09:31:09.470Z,20.82
2019-04-18T09:32:09.806Z,20.43
2019-04-18T09:33:10.249Z,20.18
2019-04-18T09:34:09.522Z,20.34
2019-04-18T09:35:12.409Z,20.57
2019-04-18T09:36:10.095Z,20.54
2019-04-18T09:37:09.581Z,20.50
2019-04-18T09:38:10.061Z,20.35
2019-04-18T09:39:11.947Z,20.42
2019-04-18T09:40:09.743Z,20.58
2019-04-18T09:41:09.526Z,20.70
2019-04-18T09:42:10.498Z,20.76
2019-04-18T09:43:21.405Z,20.77
2019-04-18T09:44:11.856Z,20.91
2019-04-18T09:45:25.835Z,21.02
2019-04-18T09:46:10.805Z,20.95
2019-04-18T09:47:12.358Z,20.99
2019-04-18T09:48:09.527Z,21.17
2019-04-18T09:49:09.671Z,21.22
2019-04-18T09:50:12.925Z,21.28
2019-04-18T09:51:09.715Z,21.22
2019-04-18T09:52:09.534Z,21.32
2019-04-18T09:53:09.604Z,21.14
2019-04-18T09:54:09.626Z,20.75
2019-04-18T09:55:12.475Z,20.53
2019-04-18T09:56:09.702Z,20.34
2019-04-18T09:57:09.695Z,20.24
2019-04-18T09:58:09.479Z,20.39
2019-04-18T09:59:11.668Z,20.60
2019-04-18T10:00:12.375Z,20.73
2019-04-18T10:01:09.970Z,20.95
2019-04-18T10:02:09.507Z,21.16
2019-04-18T10:03:09.570Z,21.29
2019-04-18T10:04:11.024Z,21.28
2019-04-18T10:05:22.571Z,21.35
2019-04-18T10:06:09.855Z,21.49
2019-04-18T10:07:09.481Z,21.50
2019-04-18T10:08:09.613Z,21.46
2019-04-18T10:09:09.616Z,21.64
2019-04-18T10:10:09.555Z,21.87
2019-04-18T10:11:14.299Z,21.91
2019-04-18T10:12:09.980Z,22.02
2019-04-18T10:13:09.577Z,21.98
2019-04-18T10:14:09.511Z,22.01
2019-04-18T10:15:15.038Z,21.98
2019-04-18T10:16:09.620Z,21.71
2019-04-18T10:17:13.187Z,21.54
2019-04-18T10:18:10.211Z,21.64
2019-04-18T10:19:09.552Z,21.82
2019-04-18T10:20:09.648Z,21.94
2019-04-18T10:21:10.288Z,22.02
2019-04-18T10:22:09.551Z,21.97
2019-04-18T10:23:09.541Z,22.00
2019-04-18T10:24:09.553Z,21.93
2019-04-18T10:25:09.625Z,22.10
2019-04-18T10:26:12.450Z,22.20
2019-04-18T10:27:09.646Z,22.25
2019-04-18T10:28:09.526Z,22.38
2019-04-18T10:29:09.647Z,22.53
2019-04-18T10:30:26.124Z,22.19
2019-04-18T10:31:09.548Z,22.20
2019-04-18T10:32:09.476Z,22.31
2019-04-18T10:33:09.571Z,22.16
2019-04-18T10:34:10.194Z,21.68
2019-04-18T10:35:09.588Z,21.57
2019-04-18T10:36:09.470Z,21.39
2019-04-18T10:37:09.504Z,21.17
2019-04-18T10:38:10.153Z,20.90
2019-04-18T10:39:10.265Z,20.83
2019-04-18T10:40:09.891Z,21.21
2019-04-18T10:41:09.549Z,21.43
2019-04-18T10:42:09.548Z,21.35
2019-04-18T10:43:09.990Z,21.31
2019-04-18T10:45:09.553Z,21.34
2019-04-18T10:46:14.573Z,21.34
2019-04-18T10:47:09.558Z,21.06
2019-04-18T10:48:09.632Z,21.34
2019-04-18T10:49:09.566Z,21.57
2019-04-18T10:50:09.622Z,21.51
2019-04-18T10:51:09.556Z,21.65
2019-04-18T10:52:09.633Z,21.76
2019-04-18T10:53:09.635Z,21.87
2019-04-18T10:54:09.560Z,22.09
2019-04-18T10:55:09.569Z,22.16
2019-04-18T10:56:09.885Z,22.20
2019-04-18T10:57:09.630Z,21.94
2019-04-18T10:58:09.578Z,22.08
2019-04-18T10:59:09.653Z,22.10
2019-04-18T11:00:09.648Z,22.28
2019-04-18T11:01:12.690Z,22.34
2019-04-18T11:02:09.662Z,22.16
2019-04-18T11:03:09.788Z,22.02
2019-04-18T11:04:18.191Z,22.04
2019-04-18T11:05:10.058Z,22.21
2019-04-18T11:06:18.501Z,22.31
2019-04-18T11:07:09.711Z,22.17
2019-04-18T11:08:09.986Z,22.10
2019-04-18T11:09:09.652Z,21.96
2019-04-18T11:10:09.655Z,21.76
2019-04-18T11:11:10.143Z,21.62
2019-04-18T11:12:09.665Z,21.38
2019-04-18T11:13:09.601Z,21.29
2019-04-18T11:14:09.661Z,21.45
2019-04-18T11:15:09.662Z,21.35
2019-04-18T11:16:09.590Z,21.08
2019-04-18T11:17:09.663Z,21.18
2019-04-18T11:18:09.601Z,21.29
2019-04-18T11:19:09.669Z,21.39
2019-04-18T11:20:09.539Z,21.43
2019-04-18T11:21:09.650Z,21.46
2019-04-18T11:22:09.959Z,21.49
2019-04-18T11:23:09.551Z,21.35
2019-04-18T11:24:09.589Z,21.18
2019-04-18T11:25:09.676Z,20.91
2019-04-18T11:26:09.724Z,21.02
2019-04-18T11:27:09.541Z,21.18
2019-04-18T11:28:10.202Z,21.40
2019-04-18T11:29:09.592Z,21.67
2019-04-18T11:30:09.619Z,21.78
2019-04-18T11:31:09.885Z,21.83
2019-04-18T11:32:09.527Z,21.80
2019-04-18T11:33:09.902Z,21.98
2019-04-18T11:34:09.563Z,21.93
2019-04-18T11:35:09.683Z,21.75
2019-04-18T11:36:09.716Z,21.78
2019-04-18T11:37:09.535Z,21.72
2019-04-18T11:38:09.546Z,21.65
2019-04-18T11:39:09.679Z,21.87
2019-04-18T11:40:09.607Z,21.89
2019-04-18T11:41:09.604Z,21.80
2019-04-18T11:42:09.567Z,22.04
2019-04-18T11:43:09.612Z,22.04
2019-04-18T11:44:10.146Z,21.73
2019-04-18T11:45:10.253Z,21.67
2019-04-18T11:46:09.756Z,21.47
2019-04-18T11:47:09.684Z,21.47
2019-04-18T11:48:09.612Z,21.51
2019-04-18T11:49:09.675Z,21.69
2019-04-18T11:50:09.603Z,21.87
2019-04-18T11:51:09.606Z,22.04
2019-04-18T11:52:09.663Z,22.16
2019-04-18T11:53:09.611Z,22.04
2019-04-18T11:54:09.612Z,21.71
2019-04-18T11:55:09.580Z,21.61
2019-04-18T11:56:13.416Z,21.47
2019-04-18T11:57:10.102Z,21.56
2019-04-18T11:58:09.667Z,21.58
2019-04-18T11:59:09.621Z,21.65
2019-04-18T12:00:12.360Z,21.67
2019-04-18T12:01:18.704Z,21.62
2019-04-18T12:02:09.780Z,21.56
2019-04-18T12:03:09.692Z,21.80
2019-04-18T12:04:09.629Z,21.89
2019-04-18T12:05:09.742Z,21.97
2019-04-18T12:06:10.192Z,22.34
2019-04-18T12:07:09.624Z,22.63
2019-04-18T12:08:09.706Z,22.90
2019-04-18T12:09:09.696Z,22.87
2019-04-18T12:10:09.873Z,22.83
2019-04-18T12:11:11.044Z,22.72
2019-04-18T12:12:10.217Z,22.82
2019-04-18T12:13:10.167Z,22.79
2019-04-18T12:14:09.997Z,22.79
2019-04-18T12:15:09.639Z,22.77
2019-04-18T12:16:09.707Z,22.76
2019-04-18T12:17:09.702Z,22.79
2019-04-18T12:18:12.957Z,22.68
2019-04-18T12:19:10.116Z,22.86
2019-04-18T12:20:09.606Z,22.88
2019-04-18T12:21:10.310Z,22.94
2019-04-18T12:22:09.632Z,22.79
2019-04-18T12:23:10.996Z,22.82
2019-04-18T12:24:09.637Z,22.97
2019-04-18T12:25:15.022Z,23.15
2019-04-18T12:26:09.695Z,23.30
2019-04-18T12:27:10.148Z,23.39
2019-04-18T12:28:09.710Z,23.02
2019-04-18T12:29:10.158Z,22.91
2019-04-18T12:30:09.711Z,23.08
2019-04-18T12:31:09.713Z,22.68
2019-04-18T12:32:09.902Z,22.68
2019-04-18T12:33:09.707Z,22.75
2019-04-18T12:34:09.706Z,22.76
2019-04-18T12:35:09.815Z,22.82
2019-04-18T12:36:09.710Z,22.93
2019-04-18T12:37:09.751Z,22.95
2019-04-18T12:38:09.711Z,22.76
2019-04-18T12:39:09.772Z,22.94
2019-04-18T12:40:10.178Z,22.98
2019-04-18T12:41:12.283Z,23.05
2019-04-18T12:42:10.479Z,23.16
2019-04-18T12:43:09.725Z,23.19
2019-04-18T12:44:09.735Z,23.39
2019-04-18T12:45:12.482Z,23.54
2019-04-18T12:46:09.730Z,23.15
2019-04-18T12:47:09.659Z,22.98
2019-04-18T12:48:10.205Z,22.98
2019-04-18T12:49:10.135Z,22.71
2019-04-18T12:50:09.678Z,22.83
2019-04-18T12:51:09.664Z,22.68
2019-04-18T12:52:14.626Z,22.23
2019-04-18T12:53:09.733Z,21.97
2019-04-18T12:54:09.660Z,22.08
2019-04-18T12:55:09.731Z,21.79
2019-04-18T12:56:09.669Z,21.86
2019-04-18T12:57:09.744Z,21.96
2019-04-18T12:58:12.879Z,22.17
2019-04-18T12:59:09.919Z,22.27
2019-04-18T13:00:09.666Z,22.32
2019-04-18T13:01:09.735Z,22.63
2019-04-18T13:02:09.681Z,22.83
2019-04-18T13:03:09.680Z,22.95
2019-04-18T13:04:09.677Z,22.48
2019-04-18T13:05:09.741Z,22.28
2019-04-18T13:06:09.734Z,22.53
2019-04-18T13:07:09.706Z,22.70
2019-04-18T13:08:09.737Z,22.94
2019-04-18T13:09:09.742Z,22.97
2019-04-18T13:10:09.674Z,22.90
2019-04-18T13:11:09.794Z,23.00
2019-04-18T13:12:09.674Z,22.97
2019-04-18T13:13:14.325Z,22.98
2019-04-18T13:14:10.274Z,22.83
2019-04-18T13:15:10.032Z,22.93
2019-04-18T13:16:09.678Z,23.01
2019-04-18T13:17:09.679Z,22.87
2019-04-18T13:18:09.747Z,22.68
2019-04-18T13:19:09.747Z,22.50
2019-04-18T13:20:09.762Z,22.30
2019-04-18T13:21:09.688Z,22.14
2019-04-18T13:22:09.755Z,22.16
2019-04-18T13:23:09.683Z,22.13
2019-04-18T13:24:12.505Z,22.36
2019-04-18T13:25:09.761Z,22.36
2019-04-18T13:26:09.754Z,22.35
2019-04-18T13:27:09.786Z,22.31
2019-04-18T13:28:09.960Z,22.25
2019-04-18T13:29:09.633Z,22.10
2019-04-18T13:30:09.762Z,21.68
2019-04-18T13:31:09.675Z,21.69
2019-04-18T13:32:09.830Z,21.76
2019-04-18T13:33:09.680Z,21.57
2019-04-18T13:34:09.679Z,21.57
2019-04-18T13:35:09.613Z,21.47
2019-04-18T13:36:09.750Z,21.73
2019-04-18T13:37:09.615Z,22.08
2019-04-18T13:38:10.112Z,22.30
2019-04-18T13:39:09.786Z,22.46
2019-04-18T13:40:09.765Z,22.53
2019-04-18T13:41:09.701Z,22.56
2019-04-18T13:42:09.899Z,22.39
2019-04-18T13:43:09.767Z,22.21
2019-04-18T13:44:09.867Z,21.97
2019-04-18T13:45:09.786Z,22.01
2019-04-18T13:46:13.140Z,22.17
2019-04-18T13:47:09.701Z,22.10
2019-04-18T13:48:09.889Z,21.91
2019-04-18T13:49:09.988Z,22.06
2019-04-18T13:50:09.979Z,22.24
2019-04-18T13:51:09.705Z,22.35
2019-04-18T13:52:09.756Z,22.12
2019-04-18T13:53:09.773Z,22.00
2019-04-18T13:54:10.912Z,21.97
2019-04-18T13:55:09.797Z,22.09
2019-04-18T13:56:10.219Z,22.30
2019-04-18T13:57:09.775Z,22.45
2019-04-18T13:58:09.956Z,22.39
2019-04-18T13:59:11.141Z,22.41
2019-04-18T14:00:09.707Z,22.27
2019-04-18T14:01:09.778Z,22.50
2019-04-18T14:02:19.022Z,22.50
2019-04-18T14:03:10.358Z,22.60
2019-04-18T14:04:09.716Z,22.65
2019-04-18T14:05:10.198Z,22.42
2019-04-18T14:06:09.982Z,22.23
2019-04-18T14:07:10.285Z,22.27
2019-04-18T14:08:09.790Z,22.24
2019-04-18T14:09:09.791Z,22.02
2019-04-18T14:10:09.716Z,21.98
2019-04-18T14:11:09.811Z,22.04
2019-04-18T14:12:09.717Z,22.02
2019-04-18T14:13:09.992Z,21.83
2019-04-18T14:14:09.749Z,21.91
2019-04-18T14:15:09.753Z,22.01
2019-04-18T14:16:09.730Z,22.01
2019-04-18T14:17:09.793Z,22.06
2019-04-18T14:18:11.075Z,22.01
2019-04-18T14:19:10.403Z,22.13
2019-04-18T14:20:09.735Z,22.39
2019-04-18T14:21:09.736Z,22.61
2019-04-18T14:22:09.729Z,22.68
2019-04-18T14:23:09.794Z,22.79
2019-04-18T14:24:09.833Z,22.71
2019-04-18T14:25:09.743Z,22.57
2019-04-18T14:26:09.729Z,22.49
2019-04-18T14:27:09.807Z,22.25
2019-04-18T14:28:10.528Z,22.17
2019-04-18T14:29:10.250Z,22.27
2019-04-18T14:30:10.108Z,22.27
2019-04-18T14:31:09.737Z,22.39
2019-04-18T14:32:09.820Z,22.60
2019-04-18T14:33:09.734Z,22.50
2019-04-18T14:34:10.482Z,22.35
2019-04-18T14:35:09.734Z,22.41
2019-04-18T14:36:09.736Z,22.32
2019-04-18T14:37:09.739Z,22.36
2019-04-18T14:38:10.165Z,22.43
2019-04-18T14:39:09.649Z,22.70
2019-04-18T14:40:09.753Z,22.71
2019-04-18T14:41:09.627Z,22.75
2019-04-18T14:42:09.840Z,22.84
2019-04-18T14:43:09.689Z,22.77
2019-04-18T14:44:09.727Z,22.70
2019-04-18T14:45:09.691Z,22.86
2019-04-18T14:46:09.677Z,23.06
2019-04-18T14:47:09.671Z,23.06
2019-04-18T14:48:16.422Z,23.17
2019-04-18T14:49:09.808Z,22.88
2019-04-18T14:50:09.800Z,22.82
2019-04-18T14:51:09.806Z,22.67
2019-04-18T14:52:11.876Z,22.75
2019-04-18T14:53:10.333Z,22.71
2019-04-18T14:54:09.730Z,22.43
2019-04-18T14:55:09.815Z,22.02
2019-04-18T14:56:09.734Z,21.75
2019-04-18T14:57:09.809Z,21.65
2019-04-18T14:58:09.815Z,21.76
2019-04-18T14:59:09.754Z,21.90
2019-04-18T15:00:09.758Z,22.09
2019-04-18T15:01:09.950Z,22.12
2019-04-18T15:02:09.917Z,22.17
2019-04-18T15:03:09.824Z,22.04
2019-04-18T15:04:09.826Z,21.94
2019-04-18T15:05:09.756Z,22.02
2019-04-18T15:06:10.342Z,21.93
2019-04-18T15:07:09.718Z,21.84
2019-04-18T15:08:09.770Z,21.80
2019-04-18T15:09:10.428Z,21.76
2019-04-18T15:10:09.728Z,21.98
2019-04-18T15:11:09.765Z,21.91
2019-04-18T15:12:09.726Z,21.65
2019-04-18T15:13:09.760Z,21.82
2019-04-18T15:14:09.724Z,21.97
2019-04-18T15:15:09.767Z,22.20
2019-04-18T15:16:09.701Z,22.42
2019-04-18T15:17:09.820Z,22.52
2019-04-18T15:18:09.734Z,22.12
2019-04-18T15:19:09.838Z,21.89
2019-04-18T15:20:09.788Z,21.86
2019-04-18T15:21:09.780Z,21.67
2019-04-18T15:22:13.355Z,21.82
2019-04-18T15:23:09.775Z,21.73
2019-04-18T15:24:09.784Z,21.57
2019-04-18T15:25:09.838Z,21.75
2019-04-18T15:26:09.778Z,21.87
2019-04-18T15:27:09.844Z,21.90
2019-04-18T15:28:09.844Z,21.72
2019-04-18T15:29:09.837Z,21.62
2019-04-18T15:30:10.605Z,21.86
2019-04-18T15:31:11.411Z,22.04
2019-04-18T15:32:09.805Z,22.06
2019-04-18T15:33:15.099Z,22.17
2019-04-18T15:34:09.838Z,22.25
2019-04-18T15:35:09.765Z,22.39
2019-04-18T15:36:09.835Z,22.39
2019-04-18T15:37:09.774Z,22.38
2019-04-18T15:38:09.804Z,22.34
2019-04-18T15:39:09.794Z,22.43
2019-04-18T15:40:09.799Z,22.42
2019-04-18T15:41:09.848Z,22.42
2019-04-18T15:42:09.789Z,22.53
2019-04-18T15:43:09.803Z,22.64
2019-04-18T15:44:09.789Z,22.72
2019-04-18T15:45:09.855Z,22.88
2019-04-18T15:46:09.855Z,22.87
2019-04-18T15:47:11.684Z,22.98
2019-04-18T15:48:09.856Z,23.09
2019-04-18T15:49:09.747Z,22.95
2019-04-18T15:50:09.778Z,22.54
2019-04-18T15:51:09.762Z,22.48
2019-04-18T15:52:09.760Z,22.36
2019-04-18T15:53:13.291Z,22.38
2019-04-18T15:54:10.337Z,22.48
2019-04-18T15:55:10.666Z,22.60
2019-04-18T15:56:09.764Z,22.70
2019-04-18T15:57:10.110Z,22.45
2019-04-18T15:58:09.818Z,22.41
2019-04-18T15:59:09.799Z,22.42
2019-04-18T16:00:09.808Z,22.46
2019-04-18T16:01:09.931Z,22.48
2019-04-18T16:02:09.800Z,22.49
2019-04-18T16:03:20.144Z,22.54
2019-04-18T16:04:09.873Z,22.56
2019-04-18T16:05:09.798Z,22.65
2019-04-18T16:06:09.797Z,22.61
2019-04-18T16:07:09.806Z,22.56
2019-04-18T16:08:09.873Z,22.36
2019-04-18T16:09:09.866Z,22.08
2019-04-18T16:10:18.882Z,21.80
2019-04-18T16:11:09.870Z,21.56
2019-04-18T16:12:09.805Z,21.65
2019-04-18T16:13:09.872Z,21.69
2019-04-18T16:14:09.808Z,21.79
2019-04-18T16:15:09.878Z,21.91
2019-04-18T16:16:10.402Z,22.02
2019-04-18T16:17:09.805Z,22.08
2019-04-18T16:18:10.075Z,22.14
2019-04-18T16:19:09.883Z,22.06
2019-04-18T16:20:09.829Z,22.09
2019-04-18T16:21:09.975Z,21.94
2019-04-18T16:22:09.870Z,21.84
2019-04-18T16:23:09.817Z,21.89
2019-04-18T16:24:09.922Z,21.89
2019-04-18T16:25:10.387Z,21.93
2019-04-18T16:26:09.889Z,22.06
2019-04-18T16:27:09.820Z,22.17
2019-04-18T16:28:10.002Z,22.21
2019-04-18T16:29:09.881Z,22.16
2019-04-18T16:30:09.829Z,21.79
2019-04-18T16:31:09.815Z,21.56
2019-04-18T16:32:09.775Z,21.39
2019-04-18T16:33:09.896Z,21.43
2019-04-18T16:34:10.208Z,21.32
2019-04-18T16:35:09.892Z,21.28
2019-04-18T16:36:09.951Z,21.14
2019-04-18T16:37:09.889Z,21.17
2019-04-18T16:38:09.914Z,21.24
2019-04-18T16:39:09.897Z,21.27
2019-04-18T16:40:10.347Z,21.36
2019-04-18T16:41:09.900Z,21.32
2019-04-18T16:42:09.893Z,21.32
2019-04-18T16:43:10.139Z,21.22
2019-04-18T16:44:09.892Z,21.24
2019-04-18T16:45:09.905Z,21.27
2019-04-18T16:46:09.831Z,21.25
2019-04-18T16:47:09.900Z,21.28
2019-04-18T16:48:09.900Z,21.29
2019-04-18T16:49:09.793Z,21.35
2019-04-18T16:50:09.826Z,21.34
2019-04-18T16:51:10.119Z,21.25
2019-04-18T16:52:09.832Z,21.13
2019-04-18T16:53:09.765Z,21.06
2019-04-18T16:54:10.479Z,20.95
2019-04-18T16:55:09.807Z,20.95
2019-04-18T16:56:09.802Z,20.76
2019-04-18T16:57:09.798Z,20.64
2019-04-18T16:58:09.842Z,20.61
2019-04-18T16:59:09.829Z,20.68
2019-04-18T17:00:09.897Z,20.70
2019-04-18T17:01:09.828Z,20.65
2019-04-18T17:02:09.902Z,20.61
2019-04-18T17:03:09.827Z,20.54
2019-04-18T17:04:12.785Z,20.46
2019-04-18T17:05:09.905Z,20.42
2019-04-18T17:06:09.907Z,20.24
2019-04-18T17:07:09.902Z,20.09
2019-04-18T17:08:09.831Z,20.05
2019-04-18T17:09:09.924Z,20.10
2019-04-18T17:10:09.915Z,20.10
2019-04-18T17:11:09.800Z,20.10
2019-04-18T17:12:09.855Z,19.96
2019-04-18T17:13:09.848Z,19.94
2019-04-18T17:14:09.914Z,19.87
2019-04-18T17:15:09.848Z,19.79
2019-04-18T17:16:09.927Z,19.72
2019-04-18T17:17:09.917Z,19.62
2019-04-18T17:18:09.850Z,19.57
2019-04-18T17:19:09.929Z,19.46
2019-04-18T17:20:09.798Z,19.42
2019-04-18T17:21:09.838Z,19.43
2019-04-18T17:22:09.917Z,19.39
2019-04-18T17:23:09.836Z,19.33
2019-04-18T17:24:09.838Z,19.33
2019-04-18T17:25:09.917Z,19.33
2019-04-18T17:26:09.883Z,19.28
2019-04-18T17:28:09.882Z,19.20
2019-04-18T17:29:09.917Z,19.19
2019-04-18T17:30:09.862Z,19.16
2019-04-18T17:31:09.986Z,19.10
2019-04-18T17:32:09.886Z,18.99
2019-04-18T17:33:09.870Z,18.86
2019-04-18T17:34:18.277Z,18.80
2019-04-18T17:35:21.792Z,18.80
2019-04-18T17:36:24.665Z,18.76
2019-04-18T17:37:24.195Z,18.72
2019-04-18T17:38:32.578Z,18.64
2019-04-18T17:39:23.439Z,18.58
2019-04-18T17:40:21.366Z,18.55
2019-04-18T17:41:16.420Z,18.50
2019-04-18T17:42:10.368Z,18.44
2019-04-18T17:43:12.915Z,18.35
2019-04-18T17:44:11.815Z,18.29
2019-04-18T17:45:12.261Z,18.23
2019-04-18T17:46:09.945Z,18.14
2019-04-18T17:47:11.929Z,18.10
2019-04-18T17:48:09.943Z,18.05
2019-04-18T17:49:16.408Z,18.00
2019-04-18T17:50:11.900Z,17.95
2019-04-18T17:51:20.409Z,17.87
2019-04-18T17:52:16.865Z,17.79
2019-04-18T17:53:24.174Z,17.75
2019-04-18T17:54:23.003Z,17.66
2019-04-18T17:55:23.709Z,17.55
2019-04-18T17:56:18.107Z,17.49
2019-04-18T17:57:11.859Z,17.40
2019-04-18T17:58:10.801Z,17.32
2019-04-18T17:59:10.936Z,17.22
2019-04-18T18:00:11.188Z,17.13
2019-04-18T18:01:10.849Z,17.05
2019-04-18T18:02:16.911Z,16.97
2019-04-18T18:03:23.838Z,16.91
2019-04-18T18:04:24.995Z,16.80
2019-04-18T18:05:16.343Z,16.72
2019-04-18T18:06:16.184Z,16.68
2019-04-18T18:07:10.554Z,16.61
2019-04-18T18:08:14.522Z,16.55
2019-04-18T18:09:14.811Z,16.50
2019-04-18T18:10:13.580Z,16.47
2019-04-18T18:11:12.709Z,16.43
2019-04-18T18:12:12.278Z,16.38
2019-04-18T18:13:16.474Z,16.36
2019-04-18T18:14:13.867Z,16.31
2019-04-18T18:15:10.400Z,16.24
2019-04-18T18:16:17.421Z,16.21
2019-04-18T18:17:14.632Z,16.20
2019-04-18T18:18:11.057Z,16.16
2019-04-18T18:19:15.807Z,16.13
2019-04-18T18:20:13.344Z,16.07
2019-04-18T18:21:11.604Z,16.00